createdAt,value
2023-05-09T00:02:50.194Z,100702.66
2023-05-09T00:07:53.035Z,100706.50
2023-05-09T00:12:58.484Z,100704.41
2023-05-09T00:18:01.340Z,100709.84
2023-05-09T00:23:04.532Z,100706.72
2023-05-09T00:28:09.094Z,100704.44
2023-05-09T00:33:11.929Z,100692.09
2023-05-09T00:38:14.880Z,100690.34
2023-05-09T00:43:19.114Z,100677.56
2023-05-09T00:48:22.694Z,100671.44
2023-05-09T00:53:25.770Z,100660.78
2023-05-09T00:58:30.933Z,100648.81
2023-05-09T01:03:34.794Z,100651.41
2023-05-09T01:08:47.918Z,100642.56
2023-05-09T01:14:02.083Z,100634.47
2023-05-09T01:19:17.206Z,100627.22
2023-05-09T01:24:50.746Z,100629.47
2023-05-09T01:29:58.682Z,100609.28
2023-05-09T01:35:04.449Z,100608.13
2023-05-09T01:40:11.237Z,100597.59
2023-05-09T01:45:17.790Z,100597.47
2023-05-09T01:50:22.597Z,100604.31
2023-05-09T01:55:28.169Z,100601.16
2023-05-09T02:00:33.147Z,100595.47
2023-05-09T02:05:38.284Z,100604.69
2023-05-09T02:10:41.286Z,100588.91
2023-05-09T02:15:46.245Z,100592.88
2023-05-09T02:20:49.327Z,100592.13
2023-05-09T02:25:54.178Z,100581.63
2023-05-09T02:31:03.416Z,100574.56
2023-05-09T02:36:08.430Z,100570.31
2023-05-09T02:41:13.983Z,100564.22
2023-05-09T02:46:18.159Z,100556.06
2023-05-09T02:51:20.932Z,100554.88
2023-05-09T02:56:23.715Z,100554.03
2023-05-09T03:01:27.918Z,100550.66
2023-05-09T03:06:30.731Z,100560.81
2023-05-09T03:11:33.796Z,100561.94
2023-05-09T03:16:38.296Z,100553.22
2023-05-09T03:21:45.854Z,100557.44
2023-05-09T03:26:49.220Z,100551.06
2023-05-09T03:31:53.509Z,100559.09
2023-05-09T03:36:56.401Z,100552.97
2023-05-09T03:41:59.301Z,100542.44
2023-05-09T03:47:04.391Z,100541.31
2023-05-09T03:52:13.287Z,100527.22
2023-05-09T03:57:16.652Z,100529.19
2023-05-09T04:02:22.878Z,100532.91
2023-05-09T04:07:26.474Z,100531.38
2023-05-09T04:12:29.527Z,100535.56
2023-05-09T04:17:34.972Z,100536.84
2023-05-09T04:22:38.021Z,100517.63
2023-05-09T04:27:40.855Z,100522.22
2023-05-09T04:32:46.000Z,100517.31
2023-05-09T04:37:49.292Z,100516.09
2023-05-09T04:42:53.390Z,100519.22
2023-05-09T04:48:02.874Z,100505.94
2023-05-09T04:53:05.914Z,100495.69
2023-05-09T04:58:10.174Z,100505.94
2023-05-09T05:03:14.508Z,100508.50
2023-05-09T05:08:17.319Z,100498.84
2023-05-09T05:13:21.459Z,100498.41
2023-05-09T05:18:29.651Z,100494.03
2023-05-09T05:23:32.420Z,100488.72
2023-05-09T05:28:35.156Z,100489.97
2023-05-09T05:33:40.811Z,100489.97
2023-05-09T05:38:43.606Z,100484.31
2023-05-09T05:43:46.407Z,100488.28
2023-05-09T05:48:52.680Z,100486.88
2023-05-09T05:53:55.728Z,100472.28
2023-05-09T05:58:59.631Z,100471.81
2023-05-09T06:04:03.939Z,100454.25
2023-05-09T06:09:08.694Z,100442.53
2023-05-09T06:14:11.652Z,100437.00
2023-05-09T06:19:15.928Z,100444.13
2023-05-09T06:24:27.952Z,100434.53
2023-05-09T06:29:38.140Z,100431.00
2023-05-09T06:34:42.878Z,100427.59
2023-05-09T06:39:45.556Z,100415.03
2023-05-09T06:44:48.233Z,100421.25
2023-05-09T06:49:52.268Z,100415.72
2023-05-09T06:54:54.936Z,100414.44
2023-05-09T06:59:57.900Z,100395.25
2023-05-09T07:05:01.987Z,100389.53
2023-05-09T07:10:11.131Z,100385.16
2023-05-09T07:15:22.757Z,100375.56
2023-05-09T07:20:33.265Z,100369.44
2023-05-09T07:25:36.230Z,100354.34
2023-05-09T07:30:39.146Z,100348.81
2023-05-09T07:35:43.429Z,100347.19
2023-05-09T07:40:46.207Z,100331.69
2023-05-09T07:45:49.055Z,100327.66
2023-05-09T07:50:53.312Z,100321.59
2023-05-09T07:55:56.064Z,100313.38
2023-05-09T08:00:58.991Z,100305.88
2023-05-09T08:06:03.387Z,100303.34
2023-05-09T08:11:06.599Z,100297.41
2023-05-09T08:16:09.374Z,100289.13
2023-05-09T08:21:13.621Z,100278.88
2023-05-09T08:26:16.370Z,100280.03
2023-05-09T08:31:19.217Z,100281.19
2023-05-09T08:36:23.510Z,100274.81
2023-05-09T08:41:28.008Z,100261.88
2023-05-09T08:46:37.680Z,100262.75
2023-05-09T08:51:42.118Z,100259.72
2023-05-09T08:56:44.918Z,100249.16
2023-05-09T09:01:48.576Z,100240.50
2023-05-09T09:06:54.873Z,100243.94
2023-05-09T09:11:59.003Z,100231.84
2023-05-09T09:17:02.532Z,100250.63
2023-05-09T09:22:07.553Z,100231.13
2023-05-09T09:27:10.371Z,100224.13
2023-05-09T09:32:13.186Z,100222.22
2023-05-09T09:37:24.864Z,100208.56
2023-05-09T09:42:27.688Z,100202.34
2023-05-09T09:47:33.783Z,100203.53
2023-05-09T09:52:37.959Z,100194.69
2023-05-09T09:57:43.948Z,100196.50
2023-05-09T10:02:51.282Z,100181.16
2023-05-09T10:07:59.902Z,100176.00
2023-05-09T10:13:04.148Z,100161.75
2023-05-09T10:18:09.076Z,100163.41
2023-05-09T10:23:17.196Z,100157.03
2023-05-09T10:28:25.156Z,100135.09
2023-05-09T10:33:32.615Z,100128.94
2023-05-09T10:38:37.265Z,100110.81
2023-05-09T10:43:40.491Z,100112.88
2023-05-09T10:48:44.780Z,100113.16
2023-05-09T10:53:50.097Z,100109.47
2023-05-09T10:58:53.231Z,100097.75
2023-05-09T11:03:57.455Z,100091.34
2023-05-09T11:09:29.241Z,100077.22
2023-05-09T11:14:33.311Z,100071.41
2023-05-09T11:19:55.120Z,100069.56
2023-05-09T11:25:05.661Z,100056.31
2023-05-09T11:30:10.002Z,100053.97
2023-05-09T11:35:15.338Z,100041.34
2023-05-09T11:40:21.683Z,100025.53
2023-05-09T11:45:27.086Z,100025.50
2023-05-09T11:50:30.394Z,100024.06
2023-05-09T11:55:39.020Z,100012.31
2023-05-09T12:00:46.031Z,100004.69
2023-05-09T12:05:49.315Z,100000.66
2023-05-09T12:10:53.612Z,99992.59
2023-05-09T12:16:01.514Z,99971.75
2023-05-09T12:21:07.087Z,99970.38
2023-05-09T12:26:11.440Z,99963.84
2023-05-09T12:31:14.536Z,99961.59
2023-05-09T12:36:17.575Z,99947.88
2023-05-09T12:46:33.523Z,99941.53
2023-05-09T12:51:37.394Z,99920.53
2023-05-09T12:56:41.655Z,99926.06
2023-05-09T13:01:44.462Z,99924.94
2023-05-09T13:06:51.814Z,99913.22
2023-05-09T13:11:56.135Z,99901.56
2023-05-09T13:16:58.977Z,99890.44
2023-05-09T13:22:01.983Z,99896.41
2023-05-09T13:27:06.176Z,99884.22
2023-05-09T13:32:08.970Z,99874.66
2023-05-09T13:37:11.905Z,99876.31
2023-05-09T13:42:17.800Z,99859.19
2023-05-09T13:47:21.990Z,99851.00
2023-05-09T13:52:24.929Z,99843.53
2023-05-09T13:57:29.202Z,99841.31
2023-05-09T14:02:32.029Z,99826.84
2023-05-09T14:07:34.883Z,99819.38
2023-05-09T14:12:40.301Z,99816.69
2023-05-09T14:17:43.518Z,99805.97
2023-05-09T14:22:46.473Z,99799.13
2023-05-09T14:27:51.429Z,99790.69
2023-05-09T14:32:54.267Z,99784.41
2023-05-09T14:37:57.072Z,99783.38
2023-05-09T14:43:02.634Z,99781.31
2023-05-09T14:48:05.689Z,99780.00
2023-05-09T14:53:08.569Z,99770.25
2023-05-09T14:58:13.464Z,99767.09
2023-05-09T15:03:17.160Z,99760.75
2023-05-09T15:08:20.020Z,99756.59
2023-05-09T15:13:24.271Z,99760.09
2023-05-09T15:18:28.659Z,99755.44
2023-05-09T15:23:31.616Z,99749.84
2023-05-09T15:28:36.109Z,99744.84
2023-05-09T15:33:38.982Z,99743.00
2023-05-09T15:38:41.840Z,99740.84
2023-05-09T15:43:46.003Z,99727.81
2023-05-09T15:48:48.785Z,99723.88
2023-05-09T15:53:51.602Z,99719.72
2023-05-09T15:58:55.729Z,99711.56
2023-05-09T16:03:59.027Z,99696.41
2023-05-09T16:09:04.360Z,99693.94
2023-05-09T16:14:11.345Z,99695.44
2023-05-09T16:19:14.592Z,99693.06
2023-05-09T16:24:17.482Z,99683.63
2023-05-09T16:29:22.366Z,99679.66
2023-05-09T16:34:25.318Z,99689.06
2023-05-09T16:39:28.934Z,99675.84
2023-05-09T16:44:33.074Z,99666.41
2023-05-09T16:49:35.886Z,99668.91
2023-05-09T16:54:38.672Z,99648.97
2023-05-09T16:59:42.867Z,99655.66
2023-05-09T17:04:45.763Z,99661.03
2023-05-09T17:09:49.659Z,99661.72
2023-05-09T17:14:54.180Z,99659.47
2023-05-09T17:19:57.669Z,99657.09
2023-05-09T17:25:00.544Z,99646.78
2023-05-09T17:30:05.550Z,99640.97
2023-05-09T17:35:09.254Z,99639.91
2023-05-09T17:40:12.588Z,99635.44
2023-05-09T17:45:16.884Z,99639.47
2023-05-09T17:50:20.767Z,99639.72
2023-05-09T17:55:23.590Z,99649.25
2023-05-09T18:00:27.883Z,99638.69
2023-05-09T18:05:30.842Z,99646.81
2023-05-09T18:10:34.148Z,99642.81
2023-05-09T18:15:38.792Z,99652.59
2023-05-09T18:20:41.583Z,99645.50
2023-05-09T18:25:44.418Z,99644.34
2023-05-09T18:30:48.978Z,99634.88
2023-05-09T18:35:51.838Z,99638.03
2023-05-09T18:40:54.630Z,99637.88
2023-05-09T18:45:58.766Z,99637.69
2023-05-09T18:51:01.608Z,99639.28
2023-05-09T18:56:04.886Z,99635.25
2023-05-09T19:01:11.624Z,99627.78
2023-05-09T19:06:16.536Z,99637.25
2023-05-09T19:11:19.441Z,99650.00
2023-05-09T19:16:26.408Z,99660.00
2023-05-09T19:21:29.672Z,99662.50
2023-05-09T19:26:32.405Z,99663.66
2023-05-09T19:31:37.245Z,99652.69
2023-05-09T19:36:40.092Z,99657.00
2023-05-09T19:41:42.841Z,99677.16
2023-05-09T19:46:47.414Z,99683.06
2023-05-09T19:51:50.300Z,99676.50
2023-05-09T19:56:53.072Z,99676.19
2023-05-09T20:01:57.330Z,99670.75
2023-05-09T20:07:00.244Z,99673.72
2023-05-09T20:12:03.822Z,99668.81
2023-05-09T20:17:07.990Z,99679.16
2023-05-09T20:22:10.781Z,99668.84
2023-05-09T20:27:13.770Z,99663.63
2023-05-09T20:32:17.988Z,99663.50
2023-05-09T20:37:20.774Z,99660.34
2023-05-09T20:42:24.293Z,99656.13
2023-05-09T20:47:28.669Z,99659.91
2023-05-09T20:52:31.441Z,99650.28
2023-05-09T20:57:34.201Z,99644.78
2023-05-09T21:02:38.357Z,99637.38
2023-05-09T21:07:41.107Z,99639.81
2023-05-09T21:12:43.912Z,99624.88
2023-05-09T21:17:48.115Z,99616.50
2023-05-09T21:22:51.128Z,99619.06
2023-05-09T21:27:53.989Z,99609.47
2023-05-09T21:32:58.150Z,99610.03
2023-05-09T21:38:00.851Z,99609.88
2023-05-09T21:43:03.783Z,99613.00
2023-05-09T21:48:08.077Z,99599.44
2023-05-09T21:53:10.818Z,99605.16
2023-05-09T21:58:13.554Z,99594.69
2023-05-09T22:03:17.710Z,99599.75
2023-05-09T22:08:20.533Z,99595.69
2023-05-09T22:13:23.342Z,99592.19
2023-05-09T22:18:27.752Z,99584.69
2023-05-09T22:23:30.495Z,99595.75
2023-05-09T22:28:33.168Z,99588.19
2023-05-09T22:33:37.226Z,99589.44
2023-05-09T22:38:39.904Z,99590.31
2023-05-09T22:43:42.595Z,99586.44
2023-05-09T22:48:46.692Z,99578.72
2023-05-09T22:53:49.573Z,99577.69
2023-05-09T22:58:52.771Z,99577.69
2023-05-09T23:03:56.819Z,99580.94
2023-05-09T23:08:59.562Z,99572.50
2023-05-09T23:14:02.558Z,99567.50
2023-05-09T23:19:06.611Z,99563.25
2023-05-09T23:24:09.591Z,99555.38
2023-05-09T23:29:12.309Z,99551.97
2023-05-09T23:34:17.096Z,99542.47
2023-05-09T23:39:19.859Z,99540.78
2023-05-09T23:44:22.584Z,99535.19
2023-05-09T23:49:27.204Z,99532.97
2023-05-09T23:54:29.964Z,99527.91
2023-05-09T23:59:32.930Z,99520.00
